Time;durP1;ratioP1;P1;durP2;ratioP2;P2;SDS_P1;SDS_P2;PMS_P1;PMS_P2;Temp;Humidity;BMP_temperature;BMP_pressure;BME280_temperature;BME280_humidity;BME280_pressure;Samples;Min_cycle;Max_cycle;Signal;HPM_P1;HPM_P2
2024/01/12 00:05:49;;;;;;;0.20;0.10;;;-1.10;99.90;;;;;;21044382;28;20031;-58
2024/01/12 00:15:50;;;;;;;0.98;0.20;;;-0.90;99.90;;;;;;21058223;28;20040;-58
2024/01/12 00:25:58;;;;;;;0.45;0.10;;;-0.80;99.90;;;;;;21077176;28;20040;-58
2024/01/12 00:36:00;;;;;;;0.05;0.00;;;-0.70;99.90;;;;;;21076511;28;20040;-58
2024/01/12 00:46:02;;;;;;;0.20;0.10;;;-0.70;99.90;;;;;;21075771;28;20032;-58
2024/01/12 00:56:04;;;;;;;1.17;0.10;;;-0.90;99.90;;;;;;21074680;28;20085;-58
2024/01/12 01:06:06;;;;;;;0.10;0.10;;;-1.10;99.90;;;;;;21074042;28;20035;-58
2024/01/12 01:16:07;;;;;;;0.38;0.10;;;-1.10;99.90;;;;;;21072759;28;20109;-56
2024/01/12 01:26:09;;;;;;;0.15;0.10;;;-1.00;99.90;;;;;;21072114;28;20043;-58
2024/01/12 01:36:11;;;;;;;0.20;0.10;;;-1.10;99.90;;;;;;21071553;28;20058;-58
2024/01/12 01:46:13;;;;;;;0.40;0.20;;;-1.20;99.90;;;;;;21072385;28;20032;-58
2024/01/12 01:56:15;;;;;;;0.50;0.20;;;-1.30;99.90;;;;;;21068673;28;20024;-54
2024/01/12 02:06:18;;;;;;;0.50;0.20;;;-1.30;99.90;;;;;;21068246;28;20031;-56
2024/01/12 02:16:20;;;;;;;1.00;0.10;;;-1.50;99.90;;;;;;21068873;28;20451;-59
2024/01/12 02:26:22;;;;;;;0.25;0.10;;;-1.30;99.90;;;;;;21035434;28;20036;-58
2024/01/12 02:36:27;;;;;;;0.10;0.00;;;-1.20;99.90;;;;;;21049913;28;20028;-59
2024/01/12 02:46:29;;;;;;;0.05;0.00;;;-1.20;99.90;;;;;;21066254;28;20032;-53
2024/01/12 02:56:31;;;;;;;0.15;0.05;;;-1.20;99.90;;;;;;21066267;28;20504;-59
2024/01/12 03:06:32;;;;;;;0.10;0.10;;;-1.20;99.90;;;;;;21064050;28;20058;-59
2024/01/12 03:16:37;;;;;;;0.10;0.08;;;-1.20;99.90;;;;;;21047353;28;20444;-59
2024/01/12 03:26:38;;;;;;;0.43;0.10;;;-1.10;99.90;;;;;;21061355;28;20390;-58
2024/01/12 03:36:43;;;;;;;0.10;0.10;;;-1.10;99.90;;;;;;21064951;28;20028;-58
2024/01/12 03:46:44;;;;;;;0.00;0.00;;;-1.20;99.90;;;;;;21067526;28;20115;-59
2024/01/12 03:56:49;;;;;;;0.32;0.10;;;-1.20;99.90;;;;;;21077422;28;20830;-59
2024/01/12 04:06:54;;;;;;;0.20;0.10;;;-1.00;99.90;;;;;;21061953;28;20066;-51
2024/01/12 04:16:55;;;;;;;0.10;0.10;;;-1.10;99.90;;;;;;21078100;28;20059;-60
2024/01/12 04:26:57;;;;;;;0.05;0.00;;;-1.20;99.90;;;;;;21077459;28;20082;-53
2024/01/12 04:36:59;;;;;;;0.10;0.00;;;-1.30;99.90;;;;;;21076364;28;20035;-59
2024/01/12 04:47:03;;;;;;;0.03;0.00;;;-1.30;99.90;;;;;;21075500;28;20035;-59
2024/01/12 04:57:08;;;;;;;0.10;0.10;;;-1.40;99.90;;;;;;21074102;28;20028;-59
2024/01/12 05:07:10;;;;;;;0.10;0.08;;;-1.50;99.90;;;;;;21073934;28;20412;-59
2024/01/12 05:17:11;;;;;;;0.00;0.00;;;-1.60;99.90;;;;;;21071287;28;20551;-58
2024/01/12 05:27:13;;;;;;;0.15;0.00;;;-1.80;99.90;;;;;;21072583;28;20077;-59
2024/01/12 05:37:15;;;;;;;0.00;0.00;;;-1.80;99.90;;;;;;21066743;28;20032;-58
2024/01/12 05:47:16;;;;;;;0.00;0.00;;;-1.70;99.90;;;;;;21064001;28;20378;-59
2024/01/12 05:57:18;;;;;;;0.10;0.00;;;-1.80;99.90;;;;;;21068567;28;20031;-58
2024/01/12 06:07:20;;;;;;;0.10;0.10;;;-1.90;99.90;;;;;;21050469;28;20093;-59
2024/01/12 06:17:24;;;;;;;1.00;0.10;;;-2.00;99.90;;;;;;21068034;28;20097;-56
2024/01/12 06:27:26;;;;;;;0.88;0.20;;;-2.20;99.90;;;;;;21063867;28;20024;-59
2024/01/12 06:37:28;;;;;;;0.60;0.30;;;-2.10;99.90;;;;;;21064501;28;20040;-60
2024/01/12 06:47:29;;;;;;;0.40;0.10;;;-2.20;99.90;;;;;;21062625;28;20040;-59
2024/01/12 06:57:32;;;;;;;0.00;0.00;;;-2.30;99.90;;;;;;21061737;28;20104;-60
2024/01/12 07:07:34;;;;;;;0.13;0.08;;;-2.30;99.90;;;;;;21060878;28;20035;-61
2024/01/12 07:17:35;;;;;;;0.35;0.10;;;-2.30;99.90;;;;;;21055633;28;20048;-59
2024/01/12 07:27:37;;;;;;;1.65;0.17;;;-2.20;99.90;;;;;;21074077;28;20040;-59
2024/01/12 07:37:39;;;;;;;0.40;0.10;;;-2.10;99.90;;;;;;21069140;28;20032;-59
2024/01/12 07:47:42;;;;;;;0.25;0.10;;;-1.90;99.90;;;;;;21057314;28;20067;-59
2024/01/12 07:57:44;;;;;;;0.40;0.22;;;-1.60;99.90;;;;;;21074940;28;20043;-61
2024/01/12 08:07:46;;;;;;;0.35;0.10;;;-0.80;99.90;;;;;;21072462;28;20032;-61
2024/01/12 08:17:47;;;;;;;0.10;0.10;;;0.00;99.90;;;;;;21071855;28;20044;-61
2024/01/12 08:27:49;;;;;;;0.28;0.10;;;0.70;99.90;;;;;;21071447;28;20032;-60
2024/01/12 08:37:51;;;;;;;0.38;0.20;;;1.40;99.70;;;;;;21069800;28;20032;-61
2024/01/12 08:47:54;;;;;;;0.30;0.10;;;2.00;97.30;;;;;;21069727;28;20089;-51
2024/01/12 08:57:56;;;;;;;0.17;0.17;;;3.00;95.20;;;;;;21069429;28;20405;-62
2024/01/12 09:07:58;;;;;;;0.55;0.20;;;3.70;94.20;;;;;;21069401;28;20028;-62
2024/01/12 09:18:00;;;;;;;0.40;0.20;;;4.40;94.00;;;;;;21069485;28;20036;-47
2024/01/12 09:28:01;;;;;;;0.60;0.20;;;4.80;93.40;;;;;;21067387;28;20040;-62
2024/01/12 09:38:03;;;;;;;0.20;0.17;;;5.20;92.10;;;;;;21066684;28;20101;-62
2024/01/12 09:48:08;;;;;;;1.05;0.32;;;5.60;91.80;;;;;;21061571;28;20047;-62
2024/01/12 09:58:10;;;;;;;0.25;0.20;;;5.90;91.80;;;;;;21064018;28;20031;-63
2024/01/12 10:08:15;;;;;;;0.68;0.28;;;6.10;90.70;;;;;;21061200;28;20036;-62
2024/01/12 10:18:16;;;;;;;1.55;0.30;;;6.40;92.20;;;;;;21065721;28;20048;-62
2024/01/12 10:28:18;;;;;;;0.10;0.10;;;6.50;90.70;;;;;;21066531;28;20032;-63
2024/01/12 10:38:21;;;;;;;0.57;0.20;;;6.60;89.60;;;;;;21065680;28;20040;-61
2024/01/12 10:48:27;;;;;;;0.60;0.28;;;6.60;87.60;;;;;;21063240;28;20040;-62
2024/01/12 10:58:30;;;;;;;0.28;0.10;;;6.80;85.50;;;;;;21062960;28;20051;-63
2024/01/12 11:08:33;;;;;;;0.30;0.10;;;7.00;83.50;;;;;;21060802;28;20040;-62
2024/01/12 11:18:37;;;;;;;0.70;0.20;;;6.90;84.30;;;;;;21062058;28;20043;-60
2024/01/12 11:28:38;;;;;;;0.82;0.40;;;7.30;84.10;;;;;;21061667;28;20040;-52
2024/01/12 11:38:42;;;;;;;1.30;0.57;;;7.40;84.80;;;;;;21043210;28;20037;-46
2024/01/12 11:48:49;;;;;;;1.50;0.70;;;7.30;85.60;;;;;;21060601;28;20032;-62
2024/01/12 11:58:51;;;;;;;1.75;0.80;;;7.20;87.30;;;;;;21060676;28;20040;-56
2024/01/12 12:08:55;;;;;;;1.15;0.65;;;7.20;84.70;;;;;;21063516;28;20043;-46
2024/01/12 12:19:00;;;;;;;1.00;0.60;;;7.10;83.60;;;;;;21074260;28;20028;-62
2024/01/12 12:29:04;;;;;;;2.08;1.10;;;6.90;82.10;;;;;;21054677;28;20036;-46
2024/01/12 12:39:09;;;;;;;2.83;1.45;;;6.80;86.20;;;;;;21072273;28;20039;-48
2024/01/12 12:49:14;;;;;;;2.78;1.63;;;6.80;87.20;;;;;;21072112;28;20032;-52
2024/01/12 12:59:16;;;;;;;2.90;1.70;;;6.70;88.50;;;;;;21052731;28;20032;-62
2024/01/12 13:09:17;;;;;;;3.53;1.80;;;6.60;87.60;;;;;;21069280;28;20032;-62
2024/01/12 13:19:19;;;;;;;4.97;2.00;;;6.20;88.50;;;;;;21068368;28;20048;-62
2024/01/12 13:29:21;;;;;;;4.78;2.90;;;5.50;90.40;;;;;;21069697;28;20043;-60
2024/01/12 13:39:24;;;;;;;4.80;2.75;;;5.00;91.20;;;;;;21069121;28;20036;-58
2024/01/12 13:49:26;;;;;;;5.13;2.85;;;4.60;92.20;;;;;;21066607;28;20478;-46
2024/01/12 13:59:29;;;;;;;5.75;2.60;;;4.10;93.70;;;;;;21066592;28;20040;-58
2024/01/12 14:09:31;;;;;;;4.72;2.30;;;3.80;94.10;;;;;;21064618;28;20028;-58
2024/01/12 14:19:32;;;;;;;4.35;2.33;;;3.50;93.60;;;;;;21064323;28;20473;-58
2024/01/12 14:29:36;;;;;;;5.75;2.60;;;3.10;93.60;;;;;;21063639;28;20035;-58
2024/01/12 14:39:41;;;;;;;5.45;2.70;;;2.70;93.90;;;;;;21046132;28;20060;-58
2024/01/12 14:49:45;;;;;;;3.80;2.05;;;2.40;94.50;;;;;;21062203;28;20058;-57
2024/01/12 14:59:47;;;;;;;4.13;2.28;;;2.00;94.30;;;;;;21061255;28;20097;-57
2024/01/12 15:09:49;;;;;;;4.50;2.22;;;1.70;94.10;;;;;;21061529;28;20058;-51
2024/01/12 15:19:51;;;;;;;5.90;2.30;;;1.30;95.40;;;;;;21060934;28;20040;-53
2024/01/12 15:29:53;;;;;;;4.68;2.30;;;0.60;98.70;;;;;;21062568;28;20058;-57
2024/01/12 15:39:57;;;;;;;4.30;2.00;;;-0.20;99.90;;;;;;21064255;22;20056;-56
2024/01/12 15:49:59;;;;;;;4.47;2.00;;;-0.70;99.90;;;;;;21070646;28;20032;-54
2024/01/12 16:00:10;;;;;;;7.32;3.10;;;-1.00;99.90;;;;;;21075143;28;20028;-53
2024/01/12 16:10:12;;;;;;;6.53;2.65;;;-1.30;99.90;;;;;;21073535;28;20028;-47
2024/01/12 16:20:13;;;;;;;6.70;3.05;;;-1.70;99.90;;;;;;21066936;28;20391;-47
2024/01/12 16:30:16;;;;;;;12.63;4.82;;;-1.90;99.90;;;;;;21069318;28;20043;-50
2024/01/12 16:40:18;;;;;;;12.27;5.35;;;-2.00;99.90;;;;;;21072029;28;20044;-62
2024/01/12 16:50:20;;;;;;;6.20;2.65;;;-2.00;99.90;;;;;;21049215;28;20046;-68
2024/01/12 17:00:22;;;;;;;5.25;2.70;;;-2.10;99.90;;;;;;21049654;28;20381;-47
2024/01/12 17:10:24;;;;;;;4.25;2.17;;;-2.20;99.90;;;;;;21062522;28;20089;-47
2024/01/12 17:20:25;;;;;;;4.03;2.20;;;-2.30;99.90;;;;;;21047772;28;20050;-43
2024/01/12 17:30:27;;;;;;;3.67;2.08;;;-2.40;99.90;;;;;;21071936;28;20035;-43
2024/01/12 17:40:32;;;;;;;3.88;1.60;;;-2.50;99.90;;;;;;21072011;28;20040;-44
2024/01/12 17:50:33;;;;;;;1.10;0.65;;;-2.60;99.90;;;;;;21053112;28;20036;-45
2024/01/12 18:00:35;;;;;;;3.58;0.98;;;-2.60;99.90;;;;;;21068425;28;20375;-44
2024/01/12 18:10:40;;;;;;;1.45;0.60;;;-2.60;99.90;;;;;;21069741;28;20078;-43
2024/01/12 18:20:42;;;;;;;2.60;0.60;;;-2.60;99.90;;;;;;21068773;28;20057;-45
2024/01/12 18:30:44;;;;;;;2.25;1.20;;;-2.60;99.90;;;;;;21068268;28;20385;-45
2024/01/12 18:40:49;;;;;;;1.40;0.60;;;-2.70;99.90;;;;;;21067966;28;20043;-43
2024/01/12 18:50:51;;;;;;;1.00;0.50;;;-2.50;99.90;;;;;;21067687;28;20065;-43
2024/01/12 19:00:53;;;;;;;0.73;0.30;;;-2.50;99.90;;;;;;21066593;28;20051;-43
2024/01/12 19:10:55;;;;;;;0.20;0.10;;;-2.70;99.90;;;;;;21029227;28;20036;-44
2024/01/12 19:20:59;;;;;;;1.63;0.65;;;-2.80;99.90;;;;;;21038364;28;20148;-48
2024/01/12 19:31:00;;;;;;;5.75;2.28;;;-3.00;99.90;;;;;;21081043;28;20044;-44
2024/01/12 19:41:02;;;;;;;5.10;2.28;;;-2.90;99.90;;;;;;21078245;28;20108;-46
2024/01/12 19:51:05;;;;;;;5.60;2.80;;;-3.00;99.90;;;;;;21061286;28;20058;-44
2024/01/12 20:01:09;;;;;;;8.55;3.58;;;-3.40;99.90;;;;;;21069723;28;20032;-44
2024/01/12 20:11:12;;;;;;;8.32;4.43;;;-3.50;99.90;;;;;;21061311;28;20101;-49
2024/01/12 20:21:13;;;;;;;11.25;5.53;;;-3.70;99.90;;;;;;21077357;28;20173;-44
2024/01/12 20:31:16;;;;;;;13.85;5.32;;;-3.90;99.90;;;;;;21067365;28;20043;-45
2024/01/12 20:41:18;;;;;;;10.55;4.70;;;-4.00;99.90;;;;;;21077015;28;20036;-44
2024/01/12 20:51:20;;;;;;;10.30;4.93;;;-4.00;99.90;;;;;;21074777;28;20035;-44
2024/01/12 21:01:22;;;;;;;10.45;5.65;;;-3.90;99.90;;;;;;21075017;28;20024;-49
2024/01/12 21:11:24;;;;;;;7.45;3.35;;;-3.90;99.90;;;;;;21073329;28;20081;-44
2024/01/12 21:21:26;;;;;;;7.93;3.90;;;-3.90;99.90;;;;;;21072839;28;20036;-46
2024/01/12 21:31:28;;;;;;;7.85;4.30;;;-3.60;99.90;;;;;;21072304;28;20830;-43
2024/01/12 21:41:30;;;;;;;13.27;5.10;;;-3.50;99.90;;;;;;21003720;28;20044;-45
2024/01/12 21:51:31;;;;;;;7.07;4.10;;;-3.60;99.90;;;;;;21045558;28;20043;-43
2024/01/12 22:01:33;;;;;;;7.53;3.83;;;-3.50;99.90;;;;;;21068959;28;20031;-43
2024/01/12 22:11:35;;;;;;;6.95;3.80;;;-3.40;99.90;;;;;;21069032;28;20028;-42
2024/01/12 22:21:37;;;;;;;5.82;3.40;;;-3.40;99.90;;;;;;21068648;28;20032;-43
2024/01/12 22:31:39;;;;;;;0.20;0.10;;;-3.40;99.90;;;;;;21050309;28;20108;-42
2024/01/12 22:41:40;;;;;;;8.32;3.75;;;-3.40;99.90;;;;;;21048026;28;20039;-43
2024/01/12 22:51:42;;;;;;;5.20;2.70;;;-3.30;99.90;;;;;;21058754;28;20036;-43
2024/01/12 23:01:47;;;;;;;8.13;4.07;;;-3.20;99.90;;;;;;21062904;28;20032;-43
2024/01/12 23:11:50;;;;;;;10.82;3.67;;;-3.40;99.90;;;;;;21066332;28;20035;-42
2024/01/12 23:21:51;;;;;;;1.75;0.60;;;-3.40;99.90;;;;;;21066128;28;20032;-43
2024/01/12 23:31:53;;;;;;;2.88;1.60;;;-3.30;99.90;;;;;;21066085;28;20082;-43
2024/01/12 23:41:55;;;;;;;1.95;1.10;;;-3.10;99.90;;;;;;21065730;28;20040;-45
2024/01/12 23:51:57;;;;;;;1.00;0.50;;;-2.90;99.90;;;;;;21064644;28;20456;-43
